createdAt,value
2018-05-14T00:00:41.259Z,1009.54
2018-05-14T00:01:41.170Z,1009.54
2018-05-14T00:02:41.967Z,1009.55
2018-05-14T00:03:41.140Z,1009.54
2018-05-14T00:04:41.963Z,1009.55
2018-05-14T00:05:41.131Z,1009.57
2018-05-14T00:06:41.049Z,1009.55
2018-05-14T00:07:41.027Z,1009.53
2018-05-14T00:08:41.005Z,1009.56
2018-05-14T00:09:41.975Z,1009.54
2018-05-14T00:10:40.997Z,1009.52
2018-05-14T00:11:40.987Z,1009.52
2018-05-14T00:12:41.466Z,1009.51
2018-05-14T00:13:40.886Z,1009.52
2018-05-14T00:14:40.859Z,1009.56
2018-05-14T00:15:41.474Z,1009.52
2018-05-14T00:16:40.868Z,1009.51
2018-05-14T00:17:40.788Z,1009.52
2018-05-14T00:18:41.026Z,1009.51
2018-05-14T00:19:40.743Z,1009.52
2018-05-14T00:20:40.721Z,1009.51
2018-05-14T00:21:41.023Z,1009.50
2018-05-14T00:22:40.668Z,1009.53
2018-05-14T00:23:40.648Z,1009.54
2018-05-14T00:24:40.681Z,1009.55
2018-05-14T00:25:40.602Z,1009.47
2018-05-14T00:26:41.035Z,1009.52
2018-05-14T00:27:40.550Z,1009.55
2018-05-14T00:28:40.528Z,1009.54
2018-05-14T00:29:40.504Z,1009.51
2018-05-14T00:30:40.479Z,1009.54
2018-05-14T00:31:40.518Z,1009.56
2018-05-14T00:32:40.428Z,1009.51
2018-05-14T00:33:40.970Z,1009.55
2018-05-14T00:34:40.389Z,1009.55
2018-05-14T00:35:40.365Z,1009.55
2018-05-14T00:36:40.533Z,1009.57
2018-05-14T00:37:40.369Z,1009.55
2018-05-14T00:38:40.287Z,1009.53
2018-05-14T00:39:40.272Z,1009.55
2018-05-14T00:40:40.243Z,1009.52
2018-05-14T00:41:40.970Z,1009.57
2018-05-14T00:42:40.247Z,1009.54
2018-05-14T00:43:40.170Z,1009.52
2018-05-14T00:44:40.975Z,1009.49
2018-05-14T00:45:40.118Z,1009.55
2018-05-14T00:46:40.095Z,1009.55
2018-05-14T00:47:40.533Z,1009.52
2018-05-14T00:48:40.108Z,1009.55
2018-05-14T00:49:40.026Z,1009.60
2018-05-14T00:50:40.003Z,1009.56
2018-05-14T00:51:41.637Z,1009.57
2018-05-14T00:52:39.985Z,1009.58
2018-05-14T00:53:40.028Z,1009.55
2018-05-14T00:54:40.069Z,1009.58
2018-05-14T00:55:40.477Z,1009.55
2018-05-14T00:56:39.853Z,1009.51
2018-05-14T00:57:39.831Z,1009.55
2018-05-14T00:58:40.034Z,1009.51
2018-05-14T00:59:39.828Z,1009.54
2018-05-14T01:00:39.830Z,1009.51
2018-05-14T01:01:39.733Z,1009.53
2018-05-14T01:02:40.488Z,1009.54
2018-05-14T01:03:39.747Z,1009.51
2018-05-14T01:04:39.674Z,1009.50
2018-05-14T01:05:40.485Z,1009.49
2018-05-14T01:06:39.620Z,1009.51
2018-05-14T01:07:39.595Z,1009.49
2018-05-14T01:08:39.608Z,1009.49
2018-05-14T01:09:39.542Z,1009.46
2018-05-14T01:10:39.520Z,1009.53
2018-05-14T01:11:39.539Z,1009.49
2018-05-14T01:12:39.980Z,1009.49
2018-05-14T01:13:39.442Z,1009.49
2018-05-14T01:14:39.465Z,1009.52
2018-05-14T01:15:39.550Z,1009.46
2018-05-14T01:16:39.383Z,1009.48
2018-05-14T01:17:39.351Z,1009.52
2018-05-14T01:18:39.993Z,1009.50
2018-05-14T01:19:39.299Z,1009.50
2018-05-14T01:20:39.319Z,1009.48
2018-05-14T01:21:39.248Z,1009.48
2018-05-14T01:22:39.978Z,1009.51
2018-05-14T01:23:39.202Z,1009.52
2018-05-14T01:24:39.986Z,1009.44
2018-05-14T01:25:39.243Z,1009.52
2018-05-14T01:26:39.127Z,1009.52
2018-05-14T01:27:39.987Z,1009.51
2018-05-14T01:28:39.079Z,1009.48
2018-05-14T01:29:39.056Z,1009.51
2018-05-14T01:30:39.083Z,1009.49
2018-05-14T01:31:39.002Z,1009.41
2018-05-14T01:32:38.980Z,1009.46
2018-05-14T01:33:38.956Z,1009.46
2018-05-14T01:34:39.486Z,1009.47
2018-05-14T01:35:38.982Z,1009.48
2018-05-14T01:36:38.887Z,1009.49
2018-05-14T01:37:39.046Z,1009.48
2018-05-14T01:38:38.836Z,1009.49
2018-05-14T01:39:38.807Z,1009.50
2018-05-14T01:40:39.486Z,1009.52
2018-05-14T01:41:38.757Z,1009.52
2018-05-14T01:42:38.770Z,1009.50
2018-05-14T01:43:39.483Z,1009.53
2018-05-14T01:44:38.682Z,1009.53
2018-05-14T01:45:38.661Z,1009.54
2018-05-14T01:46:38.639Z,1009.52
2018-05-14T01:47:38.650Z,1009.52
2018-05-14T01:48:38.596Z,1009.55
2018-05-14T01:49:38.563Z,1009.53
2018-05-14T01:50:38.540Z,1009.50
2018-05-14T01:51:39.496Z,1009.50
2018-05-14T01:52:38.530Z,1009.54
2018-05-14T01:53:38.525Z,1009.55
2018-05-14T01:54:38.985Z,1009.52
2018-05-14T01:55:38.420Z,1009.53
2018-05-14T01:56:38.385Z,1009.48
2018-05-14T01:57:38.989Z,1009.50
2018-05-14T01:58:38.384Z,1009.52
2018-05-14T01:59:38.545Z,1009.49
2018-05-14T02:00:38.293Z,1009.53
2018-05-14T02:01:38.264Z,1009.49
2018-05-14T02:02:38.986Z,1009.47
2018-05-14T02:03:38.282Z,1009.50
2018-05-14T02:04:38.197Z,1009.51
2018-05-14T02:05:38.988Z,1009.49
2018-05-14T02:06:38.137Z,1009.50
2018-05-14T02:07:38.991Z,1009.47
2018-05-14T02:08:38.139Z,1009.47
2018-05-14T02:09:38.062Z,1009.46
2018-05-14T02:10:38.987Z,1009.48
2018-05-14T02:11:38.012Z,1009.50
2018-05-14T02:12:38.490Z,1009.50
2018-05-14T02:13:38.005Z,1009.48
2018-05-14T02:14:37.939Z,1009.50
2018-05-14T02:15:38.050Z,1009.45
2018-05-14T02:16:37.886Z,1009.48
2018-05-14T02:17:38.493Z,1009.45
2018-05-14T02:18:37.835Z,1009.45
2018-05-14T02:19:37.812Z,1009.48
2018-05-14T02:20:37.843Z,1009.46
2018-05-14T02:21:38.498Z,1009.46
2018-05-14T02:22:37.738Z,1009.48
2018-05-14T02:23:37.713Z,1009.47
2018-05-14T02:24:37.733Z,1009.50
2018-05-14T02:25:38.491Z,1009.49
2018-05-14T02:26:37.684Z,1009.53
2018-05-14T02:27:37.610Z,1009.57
2018-05-14T02:28:37.588Z,1009.53
2018-05-14T02:29:38.498Z,1009.55
2018-05-14T02:30:37.579Z,1009.53
2018-05-14T02:31:37.510Z,1009.54
2018-05-14T02:32:37.530Z,1009.54
2018-05-14T02:33:37.459Z,1009.55
2018-05-14T02:34:37.434Z,1009.54
2018-05-14T02:35:37.407Z,1009.53
2018-05-14T02:36:37.995Z,1009.52
2018-05-14T02:37:37.402Z,1009.50
2018-05-14T02:38:37.336Z,1009.54
2018-05-14T02:39:37.368Z,1009.53
2018-05-14T02:40:37.993Z,1009.53
2018-05-14T02:41:37.258Z,1009.55
2018-05-14T02:42:37.275Z,1009.52
2018-05-14T02:43:37.208Z,1009.53
2018-05-14T02:44:37.995Z,1009.56
2018-05-14T02:45:37.159Z,1009.58
2018-05-14T02:46:37.138Z,1009.57
2018-05-14T02:47:37.144Z,1009.56
2018-05-14T02:48:37.612Z,1009.58
2018-05-14T02:49:37.058Z,1009.60
2018-05-14T02:50:37.038Z,1009.58
2018-05-14T02:51:37.023Z,1009.59
2018-05-14T02:52:36.982Z,1009.56
2018-05-14T02:53:37.004Z,1009.58
2018-05-14T02:54:37.497Z,1009.57
2018-05-14T02:55:36.900Z,1009.55
2018-05-14T02:56:36.878Z,1009.52
2018-05-14T02:57:37.503Z,1009.55
2018-05-14T02:58:36.893Z,1009.46
2018-05-14T02:59:37.506Z,1009.52
2018-05-14T03:00:36.777Z,1009.53
2018-05-14T03:01:36.749Z,1009.53
2018-05-14T03:02:36.732Z,1009.49
2018-05-14T03:03:37.564Z,1009.51
2018-05-14T03:04:36.674Z,1009.53
2018-05-14T03:05:36.648Z,1009.57
2018-05-14T03:06:36.624Z,1009.55
2018-05-14T03:07:36.596Z,1009.53
2018-05-14T03:08:36.619Z,1009.55
2018-05-14T03:09:36.545Z,1009.53
2018-05-14T03:10:36.522Z,1009.57
2018-05-14T03:11:36.496Z,1009.53
2018-05-14T03:12:36.475Z,1009.58
2018-05-14T03:13:36.557Z,1009.60
2018-05-14T03:14:36.471Z,1009.64
2018-05-14T03:15:36.432Z,1009.58
2018-05-14T03:16:36.374Z,1009.59
2018-05-14T03:17:36.350Z,1009.65
2018-05-14T03:18:36.328Z,1009.60
2018-05-14T03:19:36.340Z,1009.62
2018-05-14T03:20:36.267Z,1009.63
2018-05-14T03:21:36.257Z,1009.60
2018-05-14T03:22:36.216Z,1009.64
2018-05-14T03:23:36.190Z,1009.66
2018-05-14T03:24:36.217Z,1009.61
2018-05-14T03:25:36.141Z,1009.63
2018-05-14T03:26:36.156Z,1009.63
2018-05-14T03:27:36.089Z,1009.70
2018-05-14T03:28:36.060Z,1009.67
2018-05-14T03:29:36.090Z,1009.69
2018-05-14T03:30:36.060Z,1009.68
2018-05-14T03:31:35.992Z,1009.72
2018-05-14T03:32:36.930Z,1009.72
2018-05-14T03:33:35.936Z,1009.71
2018-05-14T03:34:35.963Z,1009.69
2018-05-14T03:35:35.940Z,1009.70
2018-05-14T03:36:35.856Z,1009.70
2018-05-14T03:37:35.836Z,1009.72
2018-05-14T03:38:35.809Z,1009.71
2018-05-14T03:39:35.796Z,1009.76
2018-05-14T03:40:35.825Z,1009.74
2018-05-14T03:41:35.776Z,1009.69
2018-05-14T03:42:35.715Z,1009.69
2018-05-14T03:43:35.685Z,1009.72
2018-05-14T03:44:35.655Z,1009.70
2018-05-14T03:45:35.644Z,1009.70
2018-05-14T03:46:35.649Z,1009.74
2018-05-14T03:47:35.598Z,1009.72
2018-05-14T03:48:35.565Z,1009.73
2018-05-14T03:49:35.529Z,1009.74
2018-05-14T03:50:35.507Z,1009.73
2018-05-14T03:51:35.528Z,1009.72
2018-05-14T03:52:35.459Z,1009.73
2018-05-14T03:53:35.430Z,1009.76
2018-05-14T03:54:35.405Z,1009.79
2018-05-14T03:55:35.390Z,1009.75
2018-05-14T03:56:35.396Z,1009.74
2018-05-14T03:57:35.330Z,1009.76
2018-05-14T03:58:35.345Z,1009.78
2018-05-14T03:59:35.277Z,1009.80
2018-05-14T04:00:35.252Z,1009.76
2018-05-14T04:01:35.234Z,1009.73
2018-05-14T04:02:35.255Z,1009.76
2018-05-14T04:03:35.184Z,1009.80
2018-05-14T04:04:35.149Z,1009.79
2018-05-14T04:05:35.128Z,1009.76
2018-05-14T04:06:35.104Z,1009.82
2018-05-14T04:07:35.119Z,1009.81
2018-05-14T04:08:35.097Z,1009.80
2018-05-14T04:09:35.027Z,1009.84
2018-05-14T04:10:35.003Z,1009.86
2018-05-14T04:11:35.020Z,1009.81
2018-05-14T04:12:34.950Z,1009.83
2018-05-14T04:13:34.941Z,1009.85
2018-05-14T04:14:34.964Z,1009.85
2018-05-14T04:15:34.877Z,1009.89
2018-05-14T04:16:34.868Z,1009.88
2018-05-14T04:17:34.841Z,1009.85
2018-05-14T04:18:34.855Z,1009.89
2018-05-14T04:19:34.821Z,1009.88
2018-05-14T04:20:34.752Z,1009.87
2018-05-14T04:21:34.730Z,1009.88
2018-05-14T04:22:34.705Z,1009.87
2018-05-14T04:23:34.729Z,1009.89
2018-05-14T04:24:34.661Z,1009.86
2018-05-14T04:25:34.632Z,1009.79
2018-05-14T04:26:34.603Z,1009.80
2018-05-14T04:27:34.580Z,1009.83
2018-05-14T04:28:34.608Z,1009.82
2018-05-14T04:29:34.530Z,1009.86
2018-05-14T04:30:34.560Z,1009.87
2018-05-14T04:31:35.018Z,1009.88
2018-05-14T04:32:34.462Z,1009.85
2018-05-14T04:33:34.441Z,1009.87
2018-05-14T04:34:34.409Z,1009.90
2018-05-14T04:35:34.424Z,1009.88
2018-05-14T04:36:34.361Z,1009.90
2018-05-14T04:37:34.335Z,1009.92
2018-05-14T04:38:34.312Z,1009.92
2018-05-14T04:39:34.330Z,1009.93
2018-05-14T04:40:34.315Z,1009.95
2018-05-14T04:41:34.242Z,1009.97
2018-05-14T04:42:35.021Z,1009.95
2018-05-14T04:43:34.199Z,1009.98
2018-05-14T04:44:34.212Z,1009.99
2018-05-14T04:45:34.148Z,1009.99
2018-05-14T04:46:34.137Z,1009.96
2018-05-14T04:47:34.147Z,1009.98
2018-05-14T04:48:34.072Z,1009.97
2018-05-14T04:49:34.102Z,1010.04
2018-05-14T04:50:34.026Z,1010.04
2018-05-14T04:51:34.080Z,1010.03
2018-05-14T04:52:33.971Z,1010.05
2018-05-14T04:53:33.951Z,1010.06
2018-05-14T04:54:33.966Z,1010.10
2018-05-14T04:55:33.908Z,1010.09
2018-05-14T04:56:33.876Z,1010.07
2018-05-14T04:57:33.914Z,1010.11
2018-05-14T04:58:33.825Z,1010.09
2018-05-14T04:59:33.833Z,1010.08
2018-05-14T05:00:33.830Z,1010.11
2018-05-14T05:01:33.754Z,1010.14
2018-05-14T05:02:33.732Z,1010.12
2018-05-14T05:03:33.757Z,1010.11
2018-05-14T05:04:33.688Z,1010.16
2018-05-14T05:05:33.658Z,1010.18
2018-05-14T05:06:33.635Z,1010.18
2018-05-14T05:07:33.611Z,1010.17
2018-05-14T05:08:33.640Z,1010.15
2018-05-14T05:09:33.569Z,1010.09
2018-05-14T05:10:33.598Z,1010.20
2018-05-14T05:11:33.590Z,1010.24
2018-05-14T05:12:33.502Z,1010.16
2018-05-14T05:13:33.513Z,1010.19
2018-05-14T05:14:33.456Z,1010.25
2018-05-14T05:15:33.468Z,1010.23
2018-05-14T05:16:33.406Z,1010.23
2018-05-14T05:17:33.377Z,1010.24
2018-05-14T05:18:33.355Z,1010.24
2018-05-14T05:19:33.391Z,1010.25
2018-05-14T05:20:33.307Z,1010.22
2018-05-14T05:21:33.289Z,1010.27
2018-05-14T05:22:33.261Z,1010.31
2018-05-14T05:23:33.239Z,1010.30
2018-05-14T05:24:33.263Z,1010.30
2018-05-14T05:25:33.242Z,1010.30
2018-05-14T05:26:33.177Z,1010.31
2018-05-14T05:27:33.155Z,1010.34
2018-05-14T05:28:33.178Z,1010.37
2018-05-14T05:29:33.109Z,1010.47
2018-05-14T05:30:33.085Z,1010.35
2018-05-14T05:31:33.111Z,1010.38
2018-05-14T05:32:33.041Z,1010.35
2018-05-14T05:33:33.023Z,1010.34
2018-05-14T05:34:33.088Z,1010.37
2018-05-14T05:35:33.003Z,1010.36
2018-05-14T05:36:33.947Z,1010.31
2018-05-14T05:37:32.977Z,1010.31
2018-05-14T05:38:32.912Z,1010.27
2018-05-14T05:39:32.886Z,1010.28
2018-05-14T05:40:32.874Z,1010.31
2018-05-14T05:41:32.881Z,1010.29
2018-05-14T05:42:32.818Z,1010.31
2018-05-14T05:43:32.796Z,1010.33
2018-05-14T05:44:32.774Z,1010.26
2018-05-14T05:45:32.797Z,1010.32
2018-05-14T05:46:32.775Z,1010.31
2018-05-14T05:47:32.752Z,1010.31
2018-05-14T05:48:32.706Z,1010.34
2018-05-14T05:49:32.685Z,1010.33
2018-05-14T05:50:32.637Z,1010.31
2018-05-14T05:51:32.617Z,1010.37
2018-05-14T05:52:32.714Z,1010.34
2018-05-14T05:53:32.569Z,1010.35
2018-05-14T05:54:32.553Z,1010.42
2018-05-14T05:55:32.532Z,1010.37
2018-05-14T05:56:32.547Z,1010.33
2018-05-14T05:57:32.480Z,1010.38
2018-05-14T05:58:32.459Z,1010.34
2018-05-14T05:59:32.447Z,1010.36
2018-05-14T06:00:32.470Z,1010.39
2018-05-14T06:01:32.396Z,1010.33
2018-05-14T06:02:32.409Z,1010.38
2018-05-14T06:03:32.347Z,1010.38
2018-05-14T06:04:32.322Z,1010.43
2018-05-14T06:05:32.299Z,1010.48
2018-05-14T06:06:32.340Z,1010.48
2018-05-14T06:07:32.300Z,1010.44
2018-05-14T06:08:32.302Z,1010.51
2018-05-14T06:09:32.303Z,1010.50
2018-05-14T06:10:32.207Z,1010.56
2018-05-14T06:11:32.164Z,1010.54
2018-05-14T06:12:32.152Z,1010.53
2018-05-14T06:13:32.177Z,1010.44
2018-05-14T06:14:32.100Z,1010.46
2018-05-14T06:15:32.176Z,1010.51
2018-05-14T06:16:32.052Z,1010.45
2018-05-14T06:17:32.034Z,1010.51
2018-05-14T06:18:32.067Z,1010.43
2018-05-14T06:19:31.983Z,1010.46
2018-05-14T06:20:31.960Z,1010.44
2018-05-14T06:21:31.939Z,1010.46
2018-05-14T06:22:31.916Z,1010.54
2018-05-14T06:23:31.946Z,1010.52
2018-05-14T06:24:31.925Z,1010.53
2018-05-14T06:25:31.852Z,1010.54
2018-05-14T06:26:31.852Z,1010.52
2018-05-14T06:27:31.812Z,1010.50
2018-05-14T06:28:31.781Z,1010.55
2018-05-14T06:29:31.839Z,1010.53
2018-05-14T06:30:31.736Z,1010.50
2018-05-14T06:31:31.717Z,1010.55
2018-05-14T06:32:31.693Z,1010.52
2018-05-14T06:33:31.674Z,1010.51
2018-05-14T06:34:31.849Z,1010.56
2018-05-14T06:35:31.666Z,1010.53
2018-05-14T06:36:31.607Z,1010.55
2018-05-14T06:37:31.585Z,1010.60
2018-05-14T06:38:31.574Z,1010.60
2018-05-14T06:39:31.590Z,1010.56
2018-05-14T06:40:31.519Z,1010.55
2018-05-14T06:41:31.496Z,1010.57
2018-05-14T06:42:31.475Z,1010.55
2018-05-14T06:43:31.452Z,1010.54
2018-05-14T06:44:31.485Z,1010.55
2018-05-14T06:45:31.404Z,1010.51
2018-05-14T06:46:31.382Z,1010.55
2018-05-14T06:47:31.363Z,1010.57
2018-05-14T06:48:31.353Z,1010.60
2018-05-14T06:49:31.362Z,1010.59
2018-05-14T06:50:31.360Z,1010.59
2018-05-14T06:51:31.271Z,1010.59
2018-05-14T06:52:31.252Z,1010.61
2018-05-14T06:53:31.231Z,1010.64
2018-05-14T06:54:31.210Z,1010.65
2018-05-14T06:55:31.234Z,1010.67
2018-05-14T06:56:31.167Z,1010.69
2018-05-14T06:57:31.146Z,1010.68
2018-05-14T06:58:31.119Z,1010.67
2018-05-14T06:59:31.104Z,1010.68
2018-05-14T07:00:31.124Z,1010.61
2018-05-14T07:01:31.056Z,1010.67
2018-05-14T07:02:31.080Z,1010.66
2018-05-14T07:03:31.011Z,1010.58
2018-05-14T07:04:30.993Z,1010.63
2018-05-14T07:05:30.966Z,1010.62
2018-05-14T07:06:30.994Z,1010.55
2018-05-14T07:07:30.925Z,1010.57
2018-05-14T07:08:30.899Z,1010.57
2018-05-14T07:09:30.881Z,1010.60
2018-05-14T07:10:31.015Z,1010.58
2018-05-14T07:11:30.844Z,1010.58
2018-05-14T07:12:30.820Z,1010.58
2018-05-14T07:13:30.840Z,1010.59
2018-05-14T07:14:30.769Z,1010.57
2018-05-14T07:15:30.750Z,1010.58
2018-05-14T07:16:30.734Z,1010.60
2018-05-14T07:17:30.752Z,1010.64
2018-05-14T07:18:30.751Z,1010.64
2018-05-14T07:19:30.668Z,1010.65
2018-05-14T07:20:30.643Z,1010.69
2018-05-14T07:21:30.620Z,1010.69
2018-05-14T07:22:30.602Z,1010.69
2018-05-14T07:23:30.645Z,1010.70
2018-05-14T07:24:30.558Z,1010.73
2018-05-14T07:25:30.759Z,1010.70
2018-05-14T07:26:30.515Z,1010.73
2018-05-14T07:27:30.554Z,1010.72
2018-05-14T07:28:30.478Z,1010.72
2018-05-14T07:29:30.456Z,1010.72
2018-05-14T07:30:30.430Z,1010.75
2018-05-14T07:31:30.410Z,1010.71
2018-05-14T07:32:30.433Z,1010.73
2018-05-14T07:33:30.371Z,1010.74
2018-05-14T07:34:30.393Z,1010.73
2018-05-14T07:35:30.324Z,1010.71
2018-05-14T07:36:30.313Z,1010.78
2018-05-14T07:37:30.292Z,1010.77
2018-05-14T07:38:30.258Z,1010.81
2018-05-14T07:39:30.306Z,1010.77
2018-05-14T07:40:30.233Z,1010.78
2018-05-14T07:41:30.201Z,1010.84
2018-05-14T07:42:30.184Z,1010.82
2018-05-14T07:43:30.159Z,1010.83
2018-05-14T07:44:30.218Z,1010.83
2018-05-14T07:45:30.123Z,1010.84
2018-05-14T07:46:30.100Z,1010.82
2018-05-14T07:47:30.094Z,1010.81
2018-05-14T07:48:30.060Z,1010.82
2018-05-14T07:49:30.107Z,1010.81
2018-05-14T07:50:30.013Z,1010.83
2018-05-14T07:51:30.012Z,1010.85
2018-05-14T07:52:29.969Z,1010.86
2018-05-14T07:53:29.975Z,1010.89
2018-05-14T07:54:29.992Z,1010.90
2018-05-14T07:55:29.935Z,1010.85
2018-05-14T07:56:29.889Z,1010.89
2018-05-14T07:57:29.938Z,1010.95
2018-05-14T07:58:29.943Z,1010.89
2018-05-14T07:59:29.873Z,1010.91
2018-05-14T08:00:29.804Z,1010.93
2018-05-14T08:01:29.789Z,1010.91
2018-05-14T08:02:29.807Z,1010.98
2018-05-14T08:03:29.745Z,1010.98
2018-05-14T08:04:29.718Z,1011.03
2018-05-14T08:05:29.702Z,1010.98
2018-05-14T08:06:29.721Z,1010.94
2018-05-14T08:07:29.702Z,1010.93
2018-05-14T08:08:29.688Z,1010.90
2018-05-14T08:09:29.617Z,1010.95
2018-05-14T08:10:29.597Z,1010.96
2018-05-14T08:11:29.573Z,1010.98
2018-05-14T08:12:29.555Z,1010.95
2018-05-14T08:13:29.587Z,1011.01
2018-05-14T08:14:29.522Z,1010.95
2018-05-14T08:15:29.499Z,1010.91
2018-05-14T08:16:29.544Z,1010.97
2018-05-14T08:17:29.498Z,1011.01
2018-05-14T08:18:29.434Z,1011.01
2018-05-14T08:19:29.417Z,1011.01
2018-05-14T08:20:29.393Z,1010.95
2018-05-14T08:21:29.413Z,1010.96
2018-05-14T08:22:29.354Z,1010.99
2018-05-14T08:23:29.433Z,1011.06
2018-05-14T08:24:29.362Z,1011.00
2018-05-14T08:25:29.289Z,1011.04
2018-05-14T08:26:29.320Z,1011.07
2018-05-14T08:27:29.257Z,1011.01
2018-05-14T08:28:29.231Z,1011.04
2018-05-14T08:29:29.210Z,1011.11
2018-05-14T08:30:29.235Z,1011.10
2018-05-14T08:31:29.243Z,1011.12
2018-05-14T08:32:29.149Z,1011.09
2018-05-14T08:33:29.135Z,1011.13
2018-05-14T08:34:29.156Z,1011.12
2018-05-14T08:35:29.089Z,1011.14
2018-05-14T08:36:29.071Z,1011.14
2018-05-14T08:37:29.047Z,1011.18
2018-05-14T08:38:29.026Z,1011.13
2018-05-14T08:39:29.072Z,1011.15
2018-05-14T08:40:28.986Z,1011.16
2018-05-14T08:41:29.033Z,1011.19
2018-05-14T08:42:28.967Z,1011.13
2018-05-14T08:43:28.935Z,1011.14
2018-05-14T08:44:28.916Z,1011.16
2018-05-14T08:45:28.888Z,1011.17
2018-05-14T08:46:28.908Z,1011.20
2018-05-14T08:47:28.846Z,1011.16
2018-05-14T08:48:28.879Z,1011.20
2018-05-14T08:49:28.808Z,1011.17
2018-05-14T08:50:28.790Z,1011.16
2018-05-14T08:51:28.766Z,1011.20
2018-05-14T08:52:28.785Z,1011.17
2018-05-14T08:53:28.728Z,1011.17
2018-05-14T08:54:28.730Z,1011.21
2018-05-14T08:55:28.691Z,1011.25
2018-05-14T08:56:28.671Z,1011.25
2018-05-14T08:57:28.722Z,1011.20
2018-05-14T08:58:28.630Z,1011.26
2018-05-14T08:59:28.610Z,1011.27
2018-05-14T09:00:28.598Z,1011.33
2018-05-14T09:01:28.569Z,1011.25
2018-05-14T09:02:28.603Z,1011.24
2018-05-14T09:03:28.530Z,1011.27
2018-05-14T09:04:28.515Z,1011.36
2018-05-14T09:05:28.497Z,1011.37
2018-05-14T09:06:28.473Z,1011.31
2018-05-14T09:07:28.513Z,1011.27
2018-05-14T09:08:28.437Z,1011.28
2018-05-14T09:09:28.422Z,1011.30
2018-05-14T09:10:28.396Z,1011.34
2018-05-14T09:11:28.374Z,1011.31
2018-05-14T09:12:28.402Z,1011.27
2018-05-14T09:13:28.379Z,1011.29
2018-05-14T09:14:28.318Z,1011.31
2018-05-14T09:15:28.293Z,1011.37
2018-05-14T09:16:28.277Z,1011.38
2018-05-14T09:17:28.257Z,1011.38
2018-05-14T09:18:28.279Z,1011.37
2018-05-14T09:19:28.254Z,1011.35
2018-05-14T09:20:28.199Z,1011.38
2018-05-14T09:21:28.221Z,1011.40
2018-05-14T09:22:28.164Z,1011.35
2018-05-14T09:23:28.139Z,1011.33
2018-05-14T09:24:28.645Z,1011.44
2018-05-14T09:25:28.160Z,1011.31
2018-05-14T09:26:28.084Z,1011.41
2018-05-14T09:27:28.058Z,1011.32
2018-05-14T09:28:28.039Z,1011.29
2018-05-14T09:29:28.089Z,1011.29
2018-05-14T09:30:28.001Z,1011.26
2018-05-14T09:31:27.989Z,1011.32
2018-05-14T09:32:27.966Z,1011.31
2018-05-14T09:33:27.943Z,1011.31
2018-05-14T09:34:27.971Z,1011.23
2018-05-14T09:35:27.908Z,1011.33
2018-05-14T09:36:27.897Z,1011.24
2018-05-14T09:37:27.868Z,1011.33
2018-05-14T09:38:27.896Z,1011.27
2018-05-14T09:39:27.828Z,1011.28
2018-05-14T09:40:27.808Z,1011.34
2018-05-14T09:41:27.790Z,1011.33
2018-05-14T09:42:27.768Z,1011.28
2018-05-14T09:43:27.795Z,1011.34
2018-05-14T09:44:27.749Z,1011.24
2018-05-14T09:45:27.761Z,1011.22
2018-05-14T09:46:27.704Z,1011.27
2018-05-14T09:47:27.673Z,1011.21
2018-05-14T09:48:27.656Z,1011.17
2018-05-14T09:49:27.691Z,1011.22
2018-05-14T09:50:27.630Z,1011.27
2018-05-14T09:51:27.595Z,1011.23
2018-05-14T09:52:27.574Z,1011.20
2018-05-14T09:53:27.557Z,1011.15
2018-05-14T09:54:27.585Z,1011.27
2018-05-14T09:55:27.568Z,1011.30
2018-05-14T09:56:27.514Z,1011.33
2018-05-14T09:57:27.480Z,1011.22
2018-05-14T09:58:27.506Z,1011.36
2018-05-14T09:59:27.439Z,1011.24
2018-05-14T10:00:27.476Z,1011.22
2018-05-14T10:01:27.403Z,1011.18
2018-05-14T10:02:27.381Z,1011.19
2018-05-14T10:03:27.418Z,1011.22
2018-05-14T10:04:27.343Z,1011.21
2018-05-14T10:05:27.381Z,1011.24
2018-05-14T10:06:27.309Z,1011.17
2018-05-14T10:07:27.288Z,1011.15
2018-05-14T10:08:27.278Z,1011.19
2018-05-14T10:09:27.247Z,1011.15
2018-05-14T10:10:27.281Z,1011.19
2018-05-14T10:11:27.239Z,1011.22
2018-05-14T10:12:27.204Z,1011.13
2018-05-14T10:13:27.174Z,1011.11
2018-05-14T10:14:27.217Z,1011.23
2018-05-14T10:15:27.132Z,1011.23
2018-05-14T10:16:27.175Z,1011.23
2018-05-14T10:17:27.095Z,1011.24
2018-05-14T10:18:27.076Z,1011.21
2018-05-14T10:19:27.058Z,1011.22
2018-05-14T10:20:27.034Z,1011.28
2018-05-14T10:21:27.060Z,1011.21
2018-05-14T10:22:27.042Z,1011.17
2018-05-14T10:23:26.975Z,1011.16
2018-05-14T10:24:26.956Z,1011.26
2018-05-14T10:25:26.934Z,1011.22
2018-05-14T10:26:26.972Z,1011.20
2018-05-14T10:27:26.901Z,1011.24
2018-05-14T10:28:26.934Z,1011.21
2018-05-14T10:29:26.910Z,1011.25
2018-05-14T10:30:26.838Z,1011.33
2018-05-14T10:31:26.816Z,1011.22
2018-05-14T10:32:26.851Z,1011.24
2018-05-14T10:33:26.781Z,1011.18
2018-05-14T10:34:26.810Z,1011.17
2018-05-14T10:35:26.737Z,1011.25
2018-05-14T10:36:26.764Z,1011.32
2018-05-14T10:37:26.703Z,1011.29
2018-05-14T10:38:26.731Z,1011.35
2018-05-14T10:39:26.667Z,1011.28
2018-05-14T10:40:26.648Z,1011.27
2018-05-14T10:41:26.625Z,1011.25
2018-05-14T10:42:26.610Z,1011.20
2018-05-14T10:43:26.636Z,1011.27
2018-05-14T10:44:26.571Z,1011.28
2018-05-14T10:45:26.593Z,1011.26
2018-05-14T10:46:26.533Z,1011.21
2018-05-14T10:47:26.508Z,1011.19
2018-05-14T10:48:26.491Z,1011.19
2018-05-14T10:49:26.475Z,1011.19
2018-05-14T10:50:26.495Z,1011.14
2018-05-14T10:51:26.477Z,1011.18
2018-05-14T10:52:26.454Z,1011.22
2018-05-14T10:53:26.400Z,1011.24
2018-05-14T10:54:26.419Z,1011.17
2018-05-14T10:55:26.354Z,1011.21
2018-05-14T10:56:26.341Z,1011.22
2018-05-14T10:57:26.316Z,1011.04
2018-05-14T10:58:26.299Z,1011.22
2018-05-14T10:59:26.317Z,1011.28
2018-05-14T11:00:26.259Z,1011.37
2018-05-14T11:01:26.239Z,1011.38
2018-05-14T11:02:26.268Z,1011.28
2018-05-14T11:03:26.203Z,1011.40
2018-05-14T11:04:26.234Z,1011.33
2018-05-14T11:05:26.157Z,1011.38
2018-05-14T11:06:26.136Z,1011.23
2018-05-14T11:07:26.119Z,1011.31
2018-05-14T11:08:26.149Z,1011.26
2018-05-14T11:09:26.077Z,1011.27
2018-05-14T11:10:26.065Z,1011.23
2018-05-14T11:11:26.040Z,1011.27
2018-05-14T11:12:26.020Z,1011.36
2018-05-14T11:13:26.068Z,1011.24
2018-05-14T11:14:25.985Z,1011.27
2018-05-14T11:15:25.965Z,1011.26
2018-05-14T11:16:25.992Z,1011.27
2018-05-14T11:17:25.936Z,1011.26
2018-05-14T11:18:25.909Z,1011.26
2018-05-14T11:19:25.938Z,1011.31
2018-05-14T11:20:25.869Z,1011.34
2018-05-14T11:21:25.889Z,1011.36
2018-05-14T11:22:25.870Z,1011.38
2018-05-14T11:23:25.810Z,1011.25
2018-05-14T11:24:25.822Z,1011.38
2018-05-14T11:25:25.774Z,1011.38
2018-05-14T11:26:25.820Z,1011.33
2018-05-14T11:27:25.840Z,1011.29
2018-05-14T11:28:25.713Z,1011.34
2018-05-14T11:29:25.693Z,1011.23
2018-05-14T11:30:25.671Z,1011.40
2018-05-14T11:31:25.721Z,1011.32
2018-05-14T11:32:25.636Z,1011.25
2018-05-14T11:33:25.625Z,1011.22
2018-05-14T11:34:25.595Z,1011.25
2018-05-14T11:35:25.589Z,1011.21
2018-05-14T11:36:25.683Z,1011.23
2018-05-14T11:37:25.584Z,1011.25
2018-05-14T11:38:25.517Z,1011.23
2018-05-14T11:39:25.501Z,1011.31
2018-05-14T11:40:25.481Z,1011.23
2018-05-14T11:41:25.516Z,1011.28
2018-05-14T11:42:25.440Z,1011.27
2018-05-14T11:43:25.682Z,1011.35
2018-05-14T11:44:25.404Z,1011.32
2018-05-14T11:45:25.386Z,1011.29
2018-05-14T11:46:25.423Z,1011.32
2018-05-14T11:47:25.349Z,1011.38
2018-05-14T11:48:25.323Z,1011.38
2018-05-14T11:49:25.308Z,1011.32
2018-05-14T11:50:25.290Z,1011.38
2018-05-14T11:51:25.328Z,1011.36
2018-05-14T11:52:25.249Z,1011.30
2018-05-14T11:53:25.236Z,1011.41
2018-05-14T11:54:25.209Z,1011.29
2018-05-14T11:55:25.193Z,1011.30
2018-05-14T11:56:25.212Z,1011.40
2018-05-14T11:57:25.151Z,1011.31
2018-05-14T11:58:25.132Z,1011.36
2018-05-14T11:59:25.172Z,1011.26
2018-05-14T12:00:25.093Z,1011.28
2018-05-14T12:01:25.081Z,1011.36
2018-05-14T12:02:25.101Z,1011.34
2018-05-14T12:03:25.040Z,1011.30
2018-05-14T12:04:25.016Z,1011.31
2018-05-14T12:05:25.005Z,1011.34